ADDS TAF Board (Experimental) INFO Settings

IDs: Format: Expanded Condensed

KDFW - Dallas-Ft Worth Intl, TX, US

Issued at 1459 UTC 18 Apr 2015
Updated at: 1510 UTC 18 Apr 2015
Time1453Z 18/16Z 18/17Z 18/18Z 18/19Z 18/20Z 18/21Z 18/22Z 18/23Z 19/00Z 19/01Z 19/02Z 19/03Z 19/04Z
Type OBS PRVL PRVL PRVL PRVL PRVL PRVL PRVL PRVL PRVL
  [TEMP]  
PRVL
  [TEMP]  
PRVL PRVL PRVL
VIS 10 >6 >6 >6 >6 >6 >6 >6 >6 >6
  [4]  
>6
  [4]  
>6 >6 >6
CIG -- -- -- 25 25 25 25 25 25 70
  [25]  
70
  [25]  
70 70 120
Cover FEW SCT SCT BKN BKN BKN BKN BKN BKN BKN
  [BKN]  
BKN
  [BKN]  
BKN BKN BKN
FltCat VFR VFR VFR MVFR MVFR MVFR MVFR MVFR MVFR VFR
  [MVFR]  
VFR
  [MVFR]  
VFR VFR VFR
WX -- -- -- -- -- -- -- -- -- VCTS
  [-TSRA]  
VCTS
  [-TSRA]  
VCTS VCTS VCSH
WDir 170 170 170 130 130 130 130 130 130 140
[140]
140
[140]
140 140 130
WSpd 4 4 4 8 8 8 8 8 8 8
  [8]  
8
  [8]  
8 8 5
WGst -- -- -- -- -- -- -- -- -- --
  [--]  
--
  [--]  
-- -- --
R13/31
XWnd -2 -2 -2 1 1 1 1 1 1 -1 -1 -1 -1 0
XGst -- -- -- -- -- -- -- -- -- 0 0 -- -- --
HWnd 3 3 3 8 8 8 8 8 8 8 8 8 8 5
HGst -- -- -- -- -- -- -- -- -- 0 0 -- -- --
R17/35
XWnd 1 1 1 6 6 6 6 6 6 5 5 5 5 4
XGst -- -- -- -- -- -- -- -- -- 0 0 -- -- --
HWnd 4 4 4 5 5 5 5 5 5 6 6 6 6 3
HGst -- -- -- -- -- -- -- -- -- 0 0 -- -- --
R18/36
XWnd 1 1 1 6 6 6 6 6 6 5 5 5 5 4
XGst -- -- -- -- -- -- -- -- -- 0 0 -- -- --
HWnd 4 4 4 5 5 5 5 5 5 6 6 6 6 3
HGst -- -- -- -- -- -- -- -- -- 0 0 -- -- --

NOTE: TEMPO conditions in [brackets]. Keep in mind TEMPO conditions might be better (lower impact) than prevailing conditions.

Raw TAF
KDFW 181459Z 1815/1918 17004KT P6SM SCT120
  FM181800 13008KT P6SM BKN025
  FM190000 14008KT P6SM VCTS SCT040 BKN070CB
  TEMPO 1900/1902 4SM -TSRA BKN025CB
  FM190400 13005KT P6SM VCSH SCT030 BKN120


Raw METAR
KDFW 181453Z 17004KT 10SM FEW010 FEW300 21/17 A2990 RMK AO2 SLP120 T02060167 53009
KDFW 181353Z COR 00000KT 10SM FEW250 19/17 A2989 RMK AO2 SLP114 T01890167
KDFW 181253Z 00000KT 7SM FEW130 FEW250 17/17 A2988 RMK AO2 SLP113 VCFG NE-SE T01670167

METAR Board
Radar Display
Forecast Discussion

TAF Board Legend

Potential Impact
Threat None Slight Moderate High
Visibility (sm) ≥5.1 5.1>X≥3 3>X≥1 <1
Ceiling (100 ft) ≥30.1 30.1>X≥10 10>X≥5 <5
Wind Speed (kt) <10 10≤X<20 20≤X<30 ≥30
Wind Gust (kt) <15 15≤X<25 25≤X<35 ≥35
Weather No Wx Reported VCTS,-TS,-FZRA,SN TS,FZRA +TS,+FZRA,+SN